Aurora, CO (80012)

1:51 AM MDT on September 03, 2014 (GMT -0600)
Peoria and Jewel | Change Station
CLOSE
Current Station
Personal Weather Station
Location: Aurora, CO
Elevation: 5584 ft
Nearby Weather Stations

Elev 5584 ft 39.68 °N, 104.85 °W | Updated 2 seconds ago

Partly Cloudy
Partly Cloudy
68.0 °F
Feels Like 68.0 °F
N
4.5
Wind Variable Wind from West
Gusts 11.4 mph

Today
High -- | Low -- °F
--% Chance of Precip.
Yesterday
High -- | Low -- °F
Precip. -- in
6:29 AM 7:27 PM
First Quarter, 60% visible
Pressure 29.75 in
Visibility 10.0 miles
Clouds Few 14000 ft
Dew Point 54 °F
Humidity 62%
Rainfall 0.00 in
Snow Depth Not available.
UV 0 out of 12
Pollen 10.10 out of 12
Ozone Good
PM2.5 Good
Flu Activity Not available.
METAR KBKF 030658Z 19013KT 10SM FEW140 20/12 A2999 RMK AO2A SLP072 T01960117 403050080

More Conditions Fewer Conditions

Pressure 29.75 in
Visibility 10.0 miles
Clouds Few 14000 ft
Dew Point 54 °F
Humidity 62%
Rainfall 0.00 in
Snow Depth Not available.
UV 0 out of 12
Pollen 10.10 out of 12
Ozone Good
PM2.5 Good
Flu Activity Not available.
METAR KBKF 030658Z 19013KT 10SM FEW140 20/12 A2999 RMK AO2A SLP072 T01960117 403050080

More Conditions Fewer Conditions

10-Day Weather Forecast

Almanac

Astronomy

Sep. 03, 2014 Rise Set
Actual Time 6:29 AM MDT 7:27 PM MDT
Civil Twilight 6:01 AM MDT 7:54 PM MDT
Nautical Twilight 5:29 AM MDT 8:27 PM MDT
Astronomical Twilight 4:54 AM MDT 9:01 PM MDT
Moon 3:11 PM MDT 12:26 AM MDT
Length of Visible Light 13h 52m
Length of Day
12h 57m
Tomorrow will be 2m 31s shorter.
First Quarter, 60% of the Moon is Illuminated
Today
First Quarter
Sep 8
Full
Sep 15
Last Quarter
Sep 24
New
Oct 1
First Quarter

Today's Extremes

State Highs State Lows

Community

WunderPhotos

Upload Photos

1,749,899 photos uploaded!

Nearby

Air Quality

  Air Quality AQ Index Pollutant
Yesterday Moderate
OZONE
Yesterday Good
PM10
Current Good
PM2.5
Current Good
OZONE
Wednesday Moderate
OZONE
Wednesday Good
PM2.5

Snow Depth

Station Depth Elevation
Echo Lake 0 in 10600 ft
Niwot 0 in 9910 ft
University Camp 0 in 10300 ft
Berthoud Summit 1 in 11300 ft
Copeland Lake 0 in 8600 ft

Earthquake Activity

City Distance Mag. Time & Date
No recent earthquake activity has been reported nearby.
Minimum magnitude displayed is 2.5.

Coastal Water Temperatures

Place Temperature
No Stations Reporting

Nearby Weather Stations